Time,TemperatureF,DewpointF,PressureIn,WindDirection,WindDirectionDegrees,WindSpeedMPH,WindSpeedGustMPH,Humidity,HourlyPrecipIn,Conditions,Clouds,dailyrainin,SoftwareType,DateUTC
2013-02-12 00:01:00,47.0,30.0,-100.00,North,-999,-999.0,-999.0,52,-99.99,,,-99.99,,2013-02-12 08:01:00,
2013-02-12 00:11:00,47.0,30.0,-100.00,North,-999,-999.0,-999.0,52,-99.99,,,-99.99,,2013-02-12 08:11:00,
2013-02-12 00:21:00,47.0,31.0,-100.00,North,0,-999.0,-999.0,53,-99.99,,,-99.99,,2013-02-12 08:21:00,
2013-02-12 00:31:00,47.0,31.0,-100.00,North,0,-999.0,-999.0,53,-99.99,,,-99.99,,2013-02-12 08:31:00,
2013-02-12 00:42:00,47.0,31.0,-100.00,North,0,-999.0,-999.0,53,-99.99,,,-99.99,,2013-02-12 08:42:00,
2013-02-12 00:52:00,47.0,25.0,-100.00,NW,322,-999.0,-999.0,42,-99.99,,,-99.99,,2013-02-12 08:52:00,
2013-02-12 01:01:00,47.0,25.0,-100.00,NW,322,-999.0,-999.0,42,-99.99,,,-99.99,,2013-02-12 09:01:00,
2013-02-12 01:11:00,47.0,25.0,-100.00,NW,322,-999.0,-999.0,42,-99.99,,,-99.99,,2013-02-12 09:11:00,
2013-02-12 01:21:00,47.0,13.0,-100.00,North,0,-999.0,-999.0,25,-99.99,,,-99.99,,2013-02-12 09:21:00,
2013-02-12 01:31:00,47.0,13.0,-100.00,North,0,-999.0,-999.0,25,-99.99,,,-99.99,,2013-02-12 09:31:00,
2013-02-12 01:42:00,47.0,13.0,-100.00,North,0,-999.0,-999.0,25,-99.99,,,-99.99,,2013-02-12 09:42:00,
2013-02-12 01:52:00,46.0,14.0,-100.00,North,352,-999.0,-999.0,27,-99.99,,,-99.99,,2013-02-12 09:52:00,
2013-02-12 02:01:00,46.0,14.0,-100.00,North,352,-999.0,-999.0,27,-99.99,,,-99.99,,2013-02-12 10:01:00,
2013-02-12 02:21:00,46.0,15.0,-100.00,North,360,-999.0,-999.0,28,-99.99,,,-99.99,,2013-02-12 10:21:00,
2013-02-12 02:31:00,46.0,15.0,-100.00,North,360,-999.0,-999.0,28,-99.99,,,-99.99,,2013-02-12 10:31:00,
2013-02-12 02:43:00,46.0,15.0,-100.00,North,360,-999.0,-999.0,28,-99.99,,,-99.99,,2013-02-12 10:43:00,
2013-02-12 02:52:00,47.0,13.0,-100.00,North,0,-999.0,-999.0,25,-99.99,,,-99.99,,2013-02-12 10:52:00,
2013-02-12 03:01:00,47.0,13.0,-100.00,North,0,-999.0,-999.0,25,-99.99,,,-99.99,,2013-02-12 11:01:00,
2013-02-12 03:11:00,47.0,13.0,-100.00,North,0,-999.0,-999.0,25,-99.99,,,-99.99,,2013-02-12 11:11:00,
2013-02-12 03:21:00,47.0,13.0,-100.00,North,360,-999.0,-999.0,25,-99.99,,,-99.99,,2013-02-12 11:21:00,
2013-02-12 03:31:00,47.0,13.0,-100.00,North,360,-999.0,-999.0,25,-99.99,,,-99.99,,2013-02-12 11:31:00,
2013-02-12 03:42:00,47.0,13.0,-100.00,North,360,-999.0,-999.0,25,-99.99,,,-99.99,,2013-02-12 11:42:00,
2013-02-12 03:52:00,47.0,13.0,-100.00,North,360,-999.0,-999.0,25,-99.99,,,-99.99,,2013-02-12 11:52:00,
2013-02-12 04:01:00,47.0,13.0,-100.00,North,360,-999.0,-999.0,25,-99.99,,,-99.99,,2013-02-12 12:01:00,
2013-02-12 04:22:00,47.0,12.0,-100.00,North,0,-999.0,-999.0,24,-99.99,,,-99.99,,2013-02-12 12:22:00,
2013-02-12 04:32:00,47.0,12.0,-100.00,North,0,-999.0,-999.0,24,-99.99,,,-99.99,,2013-02-12 12:32:00,
2013-02-12 04:42:00,47.0,12.0,-100.00,North,0,-999.0,-999.0,24,-99.99,,,-99.99,,2013-02-12 12:42:00,
2013-02-12 04:52:00,47.0,10.0,-100.00,North,-999,-999.0,-999.0,22,-99.99,,,-99.99,,2013-02-12 12:52:00,
2013-02-12 05:01:00,47.0,10.0,-100.00,North,-999,-999.0,-999.0,22,-99.99,,,-99.99,,2013-02-12 13:01:00,
2013-02-12 05:22:00,49.0,7.0,-100.00,North,0,-999.0,-999.0,18,-99.99,,,-99.99,,2013-02-12 13:22:00,
2013-02-12 05:31:00,49.0,7.0,-100.00,North,0,-999.0,-999.0,18,-99.99,,,-99.99,,2013-02-12 13:31:00,
2013-02-12 05:42:00,49.0,7.0,-100.00,North,0,-999.0,-999.0,18,-99.99,,,-99.99,,2013-02-12 13:42:00,
2013-02-12 05:52:00,50.0,6.0,-100.00,NE,47,-999.0,-999.0,16,-99.99,,,-99.99,,2013-02-12 13:52:00,
2013-02-12 06:01:00,50.0,6.0,-100.00,NE,47,-999.0,-999.0,16,-99.99,,,-99.99,,2013-02-12 14:01:00,
2013-02-12 06:21:00,50.0,8.0,-100.00,NNE,33,-999.0,-999.0,18,-99.99,,,-99.99,,2013-02-12 14:21:00,
2013-02-12 06:31:00,50.0,8.0,-100.00,NNE,33,-999.0,-999.0,18,-99.99,,,-99.99,,2013-02-12 14:31:00,
2013-02-12 06:42:00,50.0,8.0,-100.00,NNE,33,-999.0,-999.0,18,-99.99,,,-99.99,,2013-02-12 14:42:00,
2013-02-12 06:52:00,50.0,11.0,-100.00,North,3,-999.0,-999.0,20,-99.99,,,-99.99,,2013-02-12 14:52:00,
2013-02-12 07:01:00,50.0,11.0,-100.00,North,3,-999.0,-999.0,20,-99.99,,,-99.99,,2013-02-12 15:01:00,
2013-02-12 07:52:00,52.0,9.0,-100.00,North,0,-999.0,-999.0,17,-99.99,,,-99.99,,2013-02-12 15:52:00,
2013-02-12 08:01:00,52.0,9.0,-100.00,North,0,-999.0,-999.0,17,-99.99,,,-99.99,,2013-02-12 16:01:00,
2013-02-12 08:22:00,54.0,9.0,-100.00,NNE,16,-999.0,-999.0,16,-99.99,,,-99.99,,2013-02-12 16:22:00,
2013-02-12 08:31:00,54.0,9.0,-100.00,NNE,16,-999.0,-999.0,16,-99.99,,,-99.99,,2013-02-12 16:31:00,
2013-02-12 08:42:00,54.0,9.0,-100.00,NNE,16,-999.0,-999.0,16,-99.99,,,-99.99,,2013-02-12 16:42:00,
2013-02-12 08:52:00,55.0,10.0,-100.00,East,96,-999.0,-999.0,16,-99.99,,,-99.99,,2013-02-12 16:52:00,
2013-02-12 09:01:00,55.0,10.0,-100.00,East,96,-999.0,-999.0,16,-99.99,,,-99.99,,2013-02-12 17:01:00,
2013-02-12 09:21:00,55.0,10.0,-100.00,NE,40,-999.0,-999.0,16,-99.99,,,-99.99,,2013-02-12 17:21:00,
2013-02-12 09:31:00,55.0,10.0,-100.00,NE,40,-999.0,-999.0,16,-99.99,,,-99.99,,2013-02-12 17:31:00,
2013-02-12 09:42:00,55.0,10.0,-100.00,NE,40,-999.0,-999.0,16,-99.99,,,-99.99,,2013-02-12 17:42:00,
2013-02-12 09:52:00,56.0,10.0,-100.00,East,96,11.0,-999.0,16,-99.99,,,-99.99,,2013-02-12 17:52:00,
2013-02-12 10:01:00,56.0,10.0,-100.00,East,96,11.0,-999.0,16,-99.99,,,-99.99,,2013-02-12 18:01:00,
2013-02-12 10:22:00,60.0,24.0,-100.00,SW,229,-999.0,-999.0,25,-99.99,,,-99.99,,2013-02-12 18:22:00,
2013-02-12 10:31:00,60.0,24.0,-100.00,SW,229,-999.0,-999.0,25,-99.99,,,-99.99,,2013-02-12 18:31:00,
2013-02-12 10:42:00,60.0,24.0,-100.00,SW,229,-999.0,-999.0,25,-99.99,,,-99.99,,2013-02-12 18:42:00,
2013-02-12 10:52:00,60.0,24.0,-100.00,SW,229,-999.0,-999.0,25,-99.99,,,-99.99,,2013-02-12 18:52:00,
2013-02-12 11:01:00,60.0,24.0,-100.00,SW,229,-999.0,-999.0,25,-99.99,,,-99.99,,2013-02-12 19:01:00,
2013-02-12 11:21:00,59.0,28.0,-100.00,SSW,209,-999.0,-999.0,30,-99.99,,,-99.99,,2013-02-12 19:21:00,
2013-02-12 11:32:00,59.0,28.0,-100.00,SSW,209,-999.0,-999.0,30,-99.99,,,-99.99,,2013-02-12 19:32:00,
2013-02-12 11:42:00,59.0,28.0,-100.00,SSW,209,-999.0,-999.0,30,-99.99,,,-99.99,,2013-02-12 19:42:00,
2013-02-12 11:52:00,58.0,29.0,-100.00,SW,221,-999.0,-999.0,33,-99.99,,,-99.99,,2013-02-12 19:52:00,
2013-02-12 12:01:00,58.0,29.0,-100.00,SW,221,-999.0,-999.0,33,-99.99,,,-99.99,,2013-02-12 20:01:00,
2013-02-12 12:11:00,58.0,29.0,-100.00,SW,221,-999.0,-999.0,33,-99.99,,,-99.99,,2013-02-12 20:11:00,
2013-02-12 12:21:00,59.0,30.0,-100.00,SSW,208,-999.0,-999.0,33,-99.99,,,-99.99,,2013-02-12 20:21:00,
2013-02-12 12:31:00,59.0,30.0,-100.00,SSW,208,-999.0,-999.0,33,-99.99,,,-99.99,,2013-02-12 20:31:00,
2013-02-12 12:42:00,59.0,30.0,-100.00,SSW,208,-999.0,-999.0,33,-99.99,,,-99.99,,2013-02-12 20:42:00,
2013-02-12 12:52:00,58.0,30.0,-100.00,SSE,159,-999.0,-999.0,34,-99.99,,,-99.99,,2013-02-12 20:52:00,
2013-02-12 13:01:00,58.0,30.0,-100.00,SSE,159,-999.0,-999.0,34,-99.99,,,-99.99,,2013-02-12 21:01:00,
2013-02-12 13:11:00,58.0,30.0,-100.00,SSE,159,-999.0,-999.0,34,-99.99,,,-99.99,,2013-02-12 21:11:00,
2013-02-12 13:21:00,59.0,31.0,-100.00,WNW,301,-999.0,-999.0,35,-99.99,,,-99.99,,2013-02-12 21:21:00,
2013-02-12 13:31:00,59.0,31.0,-100.00,WNW,301,-999.0,-999.0,35,-99.99,,,-99.99,,2013-02-12 21:31:00,
2013-02-12 13:42:00,59.0,31.0,-100.00,WNW,301,-999.0,-999.0,35,-99.99,,,-99.99,,2013-02-12 21:42:00,
2013-02-12 13:52:00,58.0,28.0,-100.00,NW,309,-999.0,-999.0,32,-99.99,,,-99.99,,2013-02-12 21:52:00,
2013-02-12 14:01:00,58.0,28.0,-100.00,NW,309,-999.0,-999.0,32,-99.99,,,-99.99,,2013-02-12 22:01:00,
2013-02-12 14:12:00,58.0,28.0,-100.00,NW,309,-999.0,-999.0,32,-99.99,,,-99.99,,2013-02-12 22:12:00,
2013-02-12 14:21:00,58.0,27.0,-100.00,WNW,283,-999.0,-999.0,30,-99.99,,,-99.99,,2013-02-12 22:21:00,
2013-02-12 14:31:00,58.0,27.0,-100.00,WNW,283,-999.0,-999.0,30,-99.99,,,-99.99,,2013-02-12 22:31:00,
2013-02-12 14:42:00,58.0,27.0,-100.00,WNW,283,-999.0,-999.0,30,-99.99,,,-99.99,,2013-02-12 22:42:00,
2013-02-12 14:52:00,57.0,23.0,-100.00,West,265,-999.0,-999.0,27,-99.99,,,0.00,,2013-02-12 22:52:00,
2013-02-12 15:01:00,57.0,23.0,-100.00,West,265,-999.0,-999.0,27,-99.99,,,0.00,,2013-02-12 23:01:00,
2013-02-12 15:11:00,57.0,23.0,-100.00,West,265,-999.0,-999.0,27,-99.99,,,0.00,,2013-02-12 23:11:00,
2013-02-12 15:21:00,57.0,23.0,-100.00,West,265,-999.0,-999.0,27,-99.99,,,0.00,,2013-02-12 23:21:00,
2013-02-12 15:31:00,57.0,23.0,-100.00,West,265,-999.0,-999.0,27,-99.99,,,0.00,,2013-02-12 23:31:00,
2013-02-12 15:52:00,56.0,31.0,-100.00,North,0,-999.0,-999.0,38,-99.99,,,-99.99,,2013-02-12 23:52:00,
2013-02-12 16:02:00,56.0,31.0,-100.00,North,0,-999.0,-999.0,38,-99.99,,,-99.99,,2013-02-13 00:02:00,
2013-02-12 16:11:00,56.0,31.0,-100.00,North,0,-999.0,-999.0,38,-99.99,,,-99.99,,2013-02-13 00:11:00,
2013-02-12 16:21:00,54.0,27.0,-100.00,NNW,335,-999.0,-999.0,35,-99.99,,,-99.99,,2013-02-13 00:21:00,
2013-02-12 16:32:00,54.0,27.0,-100.00,NNW,335,-999.0,-999.0,35,-99.99,,,-99.99,,2013-02-13 00:32:00,
2013-02-12 16:42:00,54.0,27.0,-100.00,NNW,335,-999.0,-999.0,35,-99.99,,,-99.99,,2013-02-13 00:42:00,
2013-02-12 16:52:00,54.0,27.0,-100.00,NNW,335,-999.0,-999.0,35,-99.99,,,-99.99,,2013-02-13 00:52:00,
2013-02-12 17:01:00,54.0,27.0,-100.00,NNW,335,-999.0,-999.0,35,-99.99,,,-99.99,,2013-02-13 01:01:00,
2013-02-12 17:21:00,52.0,24.0,-100.00,NNW,336,-999.0,-999.0,33,-99.99,,,-99.99,,2013-02-13 01:21:00,
2013-02-12 17:32:00,52.0,24.0,-100.00,NNW,336,-999.0,-999.0,33,-99.99,,,-99.99,,2013-02-13 01:32:00,
2013-02-12 17:42:00,52.0,24.0,-100.00,NNW,336,-999.0,-999.0,33,-99.99,,,-99.99,,2013-02-13 01:42:00,
2013-02-12 17:52:00,51.0,19.0,-100.00,NNW,346,-999.0,-999.0,28,-99.99,,,-99.99,,2013-02-13 01:52:00,
2013-02-12 18:01:00,51.0,19.0,-100.00,NNW,346,-999.0,-999.0,28,-99.99,,,-99.99,,2013-02-13 02:01:00,
2013-02-12 18:11:00,51.0,19.0,-100.00,NNW,346,-999.0,-999.0,28,-99.99,,,-99.99,,2013-02-13 02:11:00,
2013-02-12 18:21:00,50.0,17.0,-100.00,NNE,13,-999.0,-999.0,27,-99.99,,,-99.99,,2013-02-13 02:21:00,
2013-02-12 18:31:00,50.0,17.0,-100.00,NNE,13,-999.0,-999.0,27,-99.99,,,-99.99,,2013-02-13 02:31:00,
2013-02-12 18:42:00,50.0,17.0,-100.00,NNE,13,-999.0,-999.0,27,-99.99,,,-99.99,,2013-02-13 02:42:00,
2013-02-12 18:52:00,50.0,23.0,-100.00,North,4,0.0,-999.0,35,-99.99,,,-99.99,,2013-02-13 02:52:00,
2013-02-12 19:01:00,50.0,23.0,-100.00,North,4,0.0,-999.0,35,-99.99,,,-99.99,,2013-02-13 03:01:00,
2013-02-12 19:11:00,50.0,23.0,-100.00,North,4,0.0,-999.0,35,-99.99,,,-99.99,,2013-02-13 03:11:00,
2013-02-12 19:21:00,50.0,23.0,-100.00,North,4,0.0,-999.0,35,-99.99,,,-99.99,,2013-02-13 03:21:00,
2013-02-12 19:31:00,50.0,23.0,-100.00,North,4,0.0,-999.0,35,-99.99,,,-99.99,,2013-02-13 03:31:00,
2013-02-12 19:52:00,50.0,27.0,-100.00,WNW,298,-999.0,-999.0,40,-99.99,,,-99.99,,2013-02-13 03:52:00,
2013-02-12 20:01:00,50.0,27.0,-100.00,WNW,298,-999.0,-999.0,40,-99.99,,,-99.99,,2013-02-13 04:01:00,
2013-02-12 20:11:00,50.0,27.0,-100.00,WNW,298,-999.0,-999.0,40,-99.99,,,-99.99,,2013-02-13 04:11:00,
2013-02-12 20:21:00,50.0,29.0,-100.00,North,4,-999.0,-999.0,45,-99.99,,,-99.99,,2013-02-13 04:21:00,
2013-02-12 20:31:00,50.0,29.0,-100.00,North,4,-999.0,-999.0,45,-99.99,,,-99.99,,2013-02-13 04:31:00,
2013-02-12 20:42:00,50.0,29.0,-100.00,North,4,-999.0,-999.0,45,-99.99,,,-99.99,,2013-02-13 04:42:00,
2013-02-12 20:52:00,49.0,31.0,-100.00,NW,319,-999.0,-999.0,50,-99.99,,,-99.99,,2013-02-13 04:52:00,
2013-02-12 21:01:00,49.0,31.0,-100.00,NW,319,-999.0,-999.0,50,-99.99,,,-99.99,,2013-02-13 05:01:00,
2013-02-12 21:11:00,49.0,31.0,-100.00,NW,319,-999.0,-999.0,50,-99.99,,,-99.99,,2013-02-13 05:11:00,
2013-02-12 21:22:00,49.0,31.0,-100.00,NNE,16,-999.0,-999.0,49,-99.99,,,-99.99,,2013-02-13 05:22:00,
2013-02-12 21:31:00,49.0,31.0,-100.00,NNE,16,-999.0,-999.0,49,-99.99,,,-99.99,,2013-02-13 05:31:00,
2013-02-12 21:42:00,49.0,31.0,-100.00,NNE,16,-999.0,-999.0,49,-99.99,,,-99.99,,2013-02-13 05:42:00,
2013-02-12 21:52:00,50.0,29.0,-100.00,North,3,-999.0,-999.0,45,-99.99,,,-99.99,,2013-02-13 05:52:00,
2013-02-12 22:01:00,50.0,29.0,-100.00,North,3,-999.0,-999.0,45,-99.99,,,-99.99,,2013-02-13 06:01:00,
2013-02-12 22:11:00,50.0,29.0,-100.00,North,3,-999.0,-999.0,45,-99.99,,,-99.99,,2013-02-13 06:11:00,
2013-02-12 22:21:00,51.0,31.0,-100.00,NNE,27,-999.0,-999.0,47,-99.99,,,-99.99,,2013-02-13 06:21:00,
2013-02-12 22:31:00,51.0,31.0,-100.00,NNE,27,-999.0,-999.0,47,-99.99,,,-99.99,,2013-02-13 06:31:00,
2013-02-12 22:42:00,51.0,31.0,-100.00,NNE,27,-999.0,-999.0,47,-99.99,,,-99.99,,2013-02-13 06:42:00,
2013-02-12 22:52:00,52.0,28.0,-100.00,North,8,-999.0,-999.0,40,-99.99,,,-99.99,,2013-02-13 06:52:00,
2013-02-12 23:01:00,52.0,28.0,-100.00,North,8,-999.0,-999.0,40,-99.99,,,-99.99,,2013-02-13 07:01:00,
2013-02-12 23:11:00,52.0,28.0,-100.00,North,8,-999.0,-999.0,40,-99.99,,,-99.99,,2013-02-13 07:11:00,
2013-02-12 23:21:00,52.0,27.0,-100.00,North,3,-999.0,-999.0,38,-99.99,,,-99.99,,2013-02-13 07:21:00,
2013-02-12 23:31:00,52.0,27.0,-100.00,North,3,-999.0,-999.0,38,-99.99,,,-99.99,,2013-02-13 07:31:00,
2013-02-12 23:42:00,52.0,27.0,-100.00,North,3,-999.0,-999.0,38,-99.99,,,-99.99,,2013-02-13 07:42:00,
2013-02-12 23:52:00,52.0,27.0,-100.00,North,3,-999.0,-999.0,38,-99.99,,,-99.99,,2013-02-13 07:52:00,